createdAt,value
2022-09-21T00:01:28.123Z,102074.78
2022-09-21T00:04:02.295Z,102075.66
2022-09-21T00:06:32.433Z,102074.78
2022-09-21T00:08:59.230Z,102079.16
2022-09-21T00:11:30.942Z,102076.53
2022-09-21T00:14:10.707Z,102080.91
2022-09-21T00:16:38.042Z,102079.16
2022-09-21T00:19:06.833Z,102088.81
2022-09-21T00:21:34.382Z,102087.03
2022-09-21T00:24:04.468Z,102080.03
2022-09-21T00:26:37.528Z,102083.56
2022-09-21T00:29:05.048Z,102085.31
2022-09-21T00:31:35.199Z,102083.56
2022-09-21T00:34:03.611Z,102077.41
2022-09-21T00:36:30.319Z,102086.22
2022-09-21T00:39:03.954Z,102087.09
2022-09-21T00:41:35.924Z,102096.75
2022-09-21T00:44:24.074Z,102095.81
2022-09-21T00:46:53.146Z,102082.59
2022-09-21T00:49:21.891Z,102083.50
2022-09-21T00:51:53.193Z,102088.75
2022-09-21T00:54:51.152Z,102085.25
2022-09-21T00:57:30.982Z,102094.03
2022-09-21T01:00:01.370Z,102091.31
2022-09-21T01:02:28.500Z,102093.03
2022-09-21T01:04:58.483Z,102094.78
2022-09-21T01:07:29.592Z,102097.44
2022-09-21T01:10:00.377Z,102102.69
2022-09-21T01:12:53.318Z,102093.94
2022-09-21T01:15:35.546Z,102105.38
2022-09-21T01:18:26.909Z,102100.09
2022-09-21T01:20:58.639Z,102096.66
2022-09-21T01:23:48.993Z,102089.63
2022-09-21T01:26:29.218Z,102097.53
2022-09-21T01:29:19.006Z,102096.66
2022-09-21T01:32:05.462Z,102101.91
2022-09-21T01:34:45.081Z,102107.22
2022-09-21T01:37:21.765Z,102106.31
2022-09-21T01:39:55.105Z,102096.66
2022-09-21T01:42:27.714Z,102103.69
2022-09-21T01:45:00.595Z,102107.16
2022-09-21T01:47:31.597Z,102113.31
2022-09-21T01:50:02.070Z,102118.63
2022-09-21T01:52:41.942Z,102108.06
2022-09-21T01:55:38.279Z,102116.00
2022-09-21T01:58:17.584Z,102116.91
2022-09-21T02:00:48.283Z,102115.13
2022-09-21T02:03:36.514Z,102117.78
2022-09-21T02:06:04.098Z,102118.66
2022-09-21T02:08:35.292Z,102101.97
2022-09-21T02:11:03.123Z,102108.13
2022-09-21T02:13:37.707Z,102109.88
2022-09-21T02:16:08.630Z,102116.03
2022-09-21T02:18:43.637Z,102117.84
2022-09-21T02:21:19.638Z,102126.63
2022-09-21T02:24:06.956Z,102125.75
2022-09-21T02:26:49.353Z,102131.06
2022-09-21T02:29:47.266Z,102135.44
2022-09-21T02:32:33.519Z,102128.41
2022-09-21T02:35:08.073Z,102129.31
2022-09-21T02:37:45.207Z,102132.81
2022-09-21T02:40:35.163Z,102127.56
2022-09-21T02:43:09.387Z,102130.16
2022-09-21T02:45:45.241Z,102126.66
2022-09-21T02:48:17.053Z,102133.72
2022-09-21T02:50:54.378Z,102135.47
2022-09-21T02:53:27.907Z,102134.56
2022-09-21T02:55:58.150Z,102132.81
2022-09-21T02:58:27.141Z,102132.84
2022-09-21T03:00:56.690Z,102134.59
2022-09-21T03:03:26.317Z,102133.72
2022-09-21T03:05:55.534Z,102137.25
2022-09-21T03:08:22.908Z,102140.75
2022-09-21T03:10:50.856Z,102149.53
2022-09-21T03:13:18.999Z,102140.78
2022-09-21T03:15:46.563Z,102140.75
2022-09-21T03:18:13.791Z,102139.00
2022-09-21T03:20:48.442Z,102142.53
2022-09-21T03:23:15.078Z,102141.63
2022-09-21T03:25:45.682Z,102150.44
2022-09-21T03:28:13.557Z,102152.22
2022-09-21T03:30:40.647Z,102157.47
2022-09-21T03:33:08.358Z,102158.34
2022-09-21T03:35:35.019Z,102155.72
2022-09-21T03:38:02.553Z,102152.19
2022-09-21T03:40:29.331Z,102158.34
2022-09-21T03:42:56.236Z,102159.22
2022-09-21T03:45:23.193Z,102148.66
2022-09-21T03:47:49.783Z,102148.69
2022-09-21T03:50:16.711Z,102153.06
2022-09-21T03:52:43.359Z,102145.19
2022-09-21T03:55:10.038Z,102147.81
2022-09-21T03:57:36.902Z,102153.97
2022-09-21T04:00:06.665Z,102148.69
2022-09-21T04:02:33.405Z,102146.94
2022-09-21T04:05:00.138Z,102146.06
2022-09-21T04:07:26.878Z,102151.31
2022-09-21T04:09:54.085Z,102145.16
2022-09-21T04:12:24.004Z,102146.94
2022-09-21T04:14:50.589Z,102153.97
2022-09-21T04:17:17.422Z,102144.28
2022-09-21T04:19:47.906Z,102143.41
2022-09-21T04:22:14.842Z,102142.50
2022-09-21T04:24:41.511Z,102151.34
2022-09-21T04:27:09.138Z,102153.97
2022-09-21T04:29:36.357Z,102150.44
2022-09-21T04:32:03.372Z,102155.72
2022-09-21T04:34:31.210Z,102157.50
2022-09-21T04:36:59.139Z,102157.50
2022-09-21T04:39:26.431Z,102157.47
2022-09-21T04:41:53.185Z,102154.81
2022-09-21T04:44:19.861Z,102159.25
2022-09-21T04:46:46.808Z,102152.22
2022-09-21T04:49:13.502Z,102152.22
2022-09-21T04:51:40.304Z,102150.47
2022-09-21T04:54:06.934Z,102154.81
2022-09-21T04:56:33.821Z,102160.13
2022-09-21T04:59:00.685Z,102164.50
2022-09-21T05:01:27.895Z,102161.88
2022-09-21T05:03:57.758Z,102151.31
2022-09-21T05:06:24.526Z,102162.75
2022-09-21T05:09:09.502Z,102161.00
2022-09-21T05:11:36.340Z,102163.66
2022-09-21T05:14:03.345Z,102161.00
2022-09-21T05:16:32.217Z,102154.81
2022-09-21T05:18:58.904Z,102161.00
2022-09-21T05:21:26.168Z,102162.75
2022-09-21T05:23:52.797Z,102166.28
2022-09-21T05:26:19.966Z,102166.28
2022-09-21T05:28:46.953Z,102168.94
2022-09-21T05:31:31.770Z,102166.28
2022-09-21T05:34:17.042Z,102164.50
2022-09-21T05:36:50.053Z,102170.66
2022-09-21T05:39:17.058Z,102169.81
2022-09-21T05:41:44.023Z,102168.03
2022-09-21T05:44:14.464Z,102174.16
2022-09-21T05:47:04.770Z,102188.28
2022-09-21T05:49:49.884Z,102192.63
2022-09-21T05:52:47.440Z,102182.97
2022-09-21T05:55:52.053Z,102195.28
2022-09-21T05:58:47.415Z,102198.81
2022-09-21T06:01:28.321Z,102205.84
2022-09-21T06:03:56.821Z,102201.44
2022-09-21T06:06:23.589Z,102204.09
2022-09-21T06:08:50.280Z,102204.09
2022-09-21T06:11:17.238Z,102208.53
2022-09-21T06:13:44.109Z,102209.38
2022-09-21T06:16:11.493Z,102205.00
2022-09-21T06:18:39.999Z,102205.88
2022-09-21T06:21:12.789Z,102207.63
2022-09-21T06:23:39.418Z,102211.13
2022-09-21T06:26:09.153Z,102204.97
2022-09-21T06:28:35.745Z,102211.13
2022-09-21T06:31:05.213Z,102215.53
2022-09-21T06:33:31.910Z,102209.34
2022-09-21T06:36:01.074Z,102211.09
2022-09-21T06:38:29.179Z,102209.31
2022-09-21T06:41:00.849Z,102212.84
2022-09-21T06:43:27.479Z,102211.06
2022-09-21T06:46:04.169Z,102204.88
2022-09-21T06:48:35.393Z,102213.72
2022-09-21T06:51:04.115Z,102212.81
2022-09-21T06:53:34.216Z,102210.16
2022-09-21T06:56:05.971Z,102216.31
2022-09-21T06:58:34.690Z,102222.47
2022-09-21T07:01:14.512Z,102217.19
2022-09-21T07:03:43.023Z,102219.78
2022-09-21T07:06:18.124Z,102212.75
2022-09-21T07:11:37.636Z,102213.59
2022-09-21T07:14:07.486Z,102211.81
2022-09-21T07:16:34.143Z,102208.25
2022-09-21T07:19:10.739Z,102215.28
2022-09-21T07:21:38.146Z,102211.75
2022-09-21T07:24:11.208Z,102216.09
2022-09-21T07:26:42.028Z,102209.84
2022-09-21T07:29:08.755Z,102208.88
2022-09-21T07:31:35.766Z,102206.16
2022-09-21T07:34:02.542Z,102208.75
2022-09-21T07:36:29.242Z,102209.56
2022-09-21T07:38:58.094Z,102206.84
2022-09-21T07:41:24.787Z,102205.81
2022-09-21T07:43:52.228Z,102214.59
2022-09-21T07:46:18.943Z,102211.81
2022-09-21T07:48:50.955Z,102205.50
2022-09-21T07:51:20.784Z,102208.84
2022-09-21T07:53:56.689Z,102203.25
2022-09-21T07:56:23.723Z,102202.94
2022-09-21T07:59:08.667Z,102203.41
2022-09-21T08:01:40.213Z,102202.16
2022-09-21T08:04:11.206Z,102205.38
2022-09-21T08:06:40.281Z,102203.31
2022-09-21T08:09:08.577Z,102201.38
2022-09-21T08:11:36.059Z,102201.28
2022-09-21T08:14:06.207Z,102210.09
2022-09-21T08:16:38.204Z,102218.97
2022-09-21T08:19:05.478Z,102208.22
2022-09-21T08:21:38.190Z,102214.25
2022-09-21T08:24:05.157Z,102208.91
2022-09-21T08:26:31.864Z,102203.53
2022-09-21T08:29:01.331Z,102207.81
2022-09-21T08:31:28.280Z,102213.88
2022-09-21T08:33:59.553Z,102205.91
2022-09-21T08:36:29.362Z,102211.28
2022-09-21T08:38:57.009Z,102212.19
2022-09-21T08:41:58.636Z,102211.34
2022-09-21T08:44:51.293Z,102198.88
2022-09-21T08:47:40.479Z,102208.56
2022-09-21T08:50:38.080Z,102201.94
2022-09-21T08:53:08.464Z,102206.09
2022-09-21T08:55:35.282Z,102197.69
2022-09-21T08:58:03.764Z,102200.38
2022-09-21T09:00:38.246Z,102202.22
2022-09-21T09:03:30.201Z,102199.91
2022-09-21T09:06:26.671Z,102194.78
2022-09-21T09:09:08.939Z,102194.66
2022-09-21T09:11:54.452Z,102206.13
2022-09-21T09:14:57.800Z,102202.91
2022-09-21T09:17:49.324Z,102205.44
2022-09-21T09:20:18.894Z,102209.47
2022-09-21T09:23:00.571Z,102206.09
2022-09-21T09:25:29.080Z,102208.13
2022-09-21T09:28:05.250Z,102198.38
2022-09-21T09:30:34.942Z,102208.13
2022-09-21T09:33:19.977Z,102205.47
2022-09-21T09:35:52.483Z,102207.13
2022-09-21T09:38:32.096Z,102209.78
2022-09-21T09:41:36.544Z,102209.84
2022-09-21T09:44:31.568Z,102222.13
2022-09-21T09:47:29.247Z,102216.63
2022-09-21T09:50:08.022Z,102216.44
2022-09-21T09:52:37.967Z,102221.53
2022-09-21T09:55:27.380Z,102222.25
2022-09-21T09:57:55.883Z,102215.91
2022-09-21T10:00:23.062Z,102216.66
2022-09-21T10:02:56.082Z,102221.69
2022-09-21T10:05:45.388Z,102220.53
2022-09-21T10:08:39.311Z,102221.00
2022-09-21T10:11:09.170Z,102219.66
2022-09-21T10:13:40.639Z,102223.00
2022-09-21T10:16:15.403Z,102219.56
2022-09-21T10:19:01.757Z,102224.41
2022-09-21T10:21:35.638Z,102218.44
2022-09-21T10:24:06.341Z,102219.44
2022-09-21T10:26:42.158Z,102223.94
2022-09-21T10:29:29.387Z,102217.59
2022-09-21T10:32:03.474Z,102223.59
2022-09-21T10:34:35.281Z,102215.22
2022-09-21T10:37:23.027Z,102211.47
2022-09-21T10:39:49.624Z,102220.94
2022-09-21T10:42:18.974Z,102209.03
2022-09-21T10:44:50.798Z,102208.47
2022-09-21T10:47:41.018Z,102209.81
2022-09-21T10:50:43.680Z,102202.66
2022-09-21T10:53:10.213Z,102202.25
2022-09-21T10:56:11.822Z,102201.47
2022-09-21T10:58:39.847Z,102212.00
2022-09-21T11:01:23.550Z,102204.63
2022-09-21T11:04:03.134Z,102208.94
2022-09-21T11:06:36.547Z,102210.00
2022-09-21T11:09:12.526Z,102208.63
2022-09-21T11:11:58.163Z,102208.78
2022-09-21T11:14:27.602Z,102207.69
2022-09-21T11:17:22.072Z,102209.13
2022-09-21T11:20:03.171Z,102204.19
2022-09-21T11:22:43.522Z,102201.03
2022-09-21T11:25:32.418Z,102208.47
2022-09-21T11:28:24.326Z,102204.56
2022-09-21T11:31:14.713Z,102201.63
2022-09-21T11:34:04.305Z,102202.19
2022-09-21T11:36:36.716Z,102202.94
2022-09-21T11:39:14.433Z,102197.38
2022-09-21T11:41:53.781Z,102195.28
2022-09-21T11:44:49.283Z,102199.66
2022-09-21T11:47:24.783Z,102196.13
2022-09-21T11:50:19.585Z,102199.00
2022-09-21T11:52:52.899Z,102198.34
2022-09-21T11:56:01.041Z,102187.72
2022-09-21T11:58:40.861Z,102189.75
2022-09-21T12:01:22.507Z,102192.28
2022-09-21T12:03:57.808Z,102195.47
2022-09-21T12:06:35.293Z,102206.28
2022-09-21T12:09:34.641Z,102201.00
2022-09-21T12:12:04.457Z,102199.19
2022-09-21T12:14:46.366Z,102191.94
2022-09-21T12:17:21.275Z,102193.59
2022-09-21T12:20:18.041Z,102191.53
2022-09-21T12:22:47.634Z,102197.53
2022-09-21T12:25:40.904Z,102195.72
2022-09-21T12:28:10.518Z,102197.38
2022-09-21T12:30:42.537Z,102188.66
2022-09-21T12:33:21.598Z,102195.94
2022-09-21T12:35:55.084Z,102188.03
2022-09-21T12:38:27.631Z,102194.34
2022-09-21T12:41:18.842Z,102198.94
2022-09-21T12:44:00.354Z,102194.59
2022-09-21T12:46:52.917Z,102196.44
2022-09-21T12:49:31.622Z,102192.09
2022-09-21T12:52:06.858Z,102200.22
2022-09-21T12:54:48.004Z,102191.47
2022-09-21T12:57:53.669Z,102192.63
2022-09-21T13:00:23.006Z,102190.09
2022-09-21T13:03:10.434Z,102198.34
2022-09-21T13:05:49.488Z,102198.78
2022-09-21T13:08:19.199Z,102197.97
2022-09-21T13:10:55.325Z,102194.59
2022-09-21T13:13:30.420Z,102198.34
2022-09-21T13:15:59.450Z,102199.66
2022-09-21T13:18:38.003Z,102201.03
2022-09-21T13:21:24.250Z,102197.75
2022-09-21T13:24:03.181Z,102199.56
2022-09-21T13:26:41.747Z,102193.28
2022-09-21T13:29:32.134Z,102195.94
2022-09-21T13:32:09.583Z,102194.06
2022-09-21T13:34:39.143Z,102198.44
2022-09-21T13:37:11.779Z,102200.06
2022-09-21T13:39:50.441Z,102194.53
2022-09-21T13:42:32.309Z,102197.97
2022-09-21T13:45:05.131Z,102195.09
2022-09-21T13:47:38.520Z,102191.50
2022-09-21T13:50:38.399Z,102192.19
2022-09-21T13:53:20.391Z,102187.59
2022-09-21T13:56:00.946Z,102193.75
2022-09-21T13:58:37.550Z,102196.44
2022-09-21T14:01:35.582Z,102195.47
2022-09-21T14:04:21.594Z,102192.63
2022-09-21T14:06:52.186Z,102190.84
2022-09-21T14:10:11.513Z,102188.13
2022-09-21T14:12:45.485Z,102197.97
2022-09-21T14:15:19.502Z,102191.75
2022-09-21T14:18:12.227Z,102185.50
2022-09-21T14:20:39.805Z,102193.44
2022-09-21T14:23:16.287Z,102188.88
2022-09-21T14:25:54.482Z,102175.47
2022-09-21T14:28:27.595Z,102186.03
2022-09-21T14:31:01.783Z,102187.84
2022-09-21T14:33:35.500Z,102180.75
2022-09-21T14:36:08.764Z,102179.94
2022-09-21T14:38:45.424Z,102181.72
2022-09-21T14:41:20.631Z,102182.66
2022-09-21T14:43:52.339Z,102174.75
2022-09-21T14:47:04.235Z,102179.41
2022-09-21T14:49:52.592Z,102183.31
2022-09-21T14:52:47.854Z,102179.94
2022-09-21T14:55:25.973Z,102190.88
2022-09-21T14:58:04.735Z,102184.91
2022-09-21T15:00:43.645Z,102188.53
2022-09-21T15:03:39.205Z,102179.91
2022-09-21T15:07:00.882Z,102187.28
2022-09-21T15:10:18.051Z,102175.97
2022-09-21T15:12:54.332Z,102178.06
2022-09-21T15:15:47.114Z,102177.28
2022-09-21T15:18:22.041Z,102180.78
2022-09-21T15:21:04.093Z,102181.72
2022-09-21T15:23:41.239Z,102173.75
2022-09-21T15:26:10.590Z,102178.25
2022-09-21T15:29:07.910Z,102172.19
2022-09-21T15:31:41.447Z,102179.53
2022-09-21T15:34:10.983Z,102184.06
2022-09-21T15:36:40.475Z,102181.50
2022-09-21T15:39:20.875Z,102179.72
2022-09-21T15:41:49.441Z,102178.91
2022-09-21T15:44:23.985Z,102182.53
2022-09-21T15:47:00.255Z,102178.13
2022-09-21T15:49:29.802Z,102177.34
2022-09-21T15:52:06.487Z,102176.44
2022-09-21T15:54:37.089Z,102177.38
2022-09-21T15:57:09.383Z,102178.44
2022-09-21T15:59:36.078Z,102178.56
2022-09-21T16:02:15.772Z,102175.19
2022-09-21T16:04:52.772Z,102178.00
2022-09-21T16:07:43.110Z,102187.03
2022-09-21T16:10:48.999Z,102181.09
2022-09-21T16:13:43.135Z,102175.94
2022-09-21T16:16:15.008Z,102185.75
2022-09-21T16:18:50.997Z,102181.47
2022-09-21T16:21:20.838Z,102189.53
2022-09-21T16:23:54.818Z,102183.47
2022-09-21T16:26:35.254Z,102188.94
2022-09-21T16:29:26.515Z,102190.03
2022-09-21T16:32:18.965Z,102194.66
2022-09-21T16:34:48.343Z,102191.25
2022-09-21T16:37:28.117Z,102189.63
2022-09-21T16:39:56.963Z,102189.78
2022-09-21T16:42:27.901Z,102190.84
2022-09-21T16:44:55.123Z,102188.31
2022-09-21T16:47:26.819Z,102201.75
2022-09-21T16:50:01.461Z,102201.91
2022-09-21T16:52:29.490Z,102213.69
2022-09-21T16:54:58.915Z,102212.16
2022-09-21T16:57:26.603Z,102214.13
2022-09-21T16:59:53.234Z,102214.28
2022-09-21T17:02:20.016Z,102218.88
2022-09-21T17:04:48.039Z,102220.84
2022-09-21T17:07:15.612Z,102217.41
2022-09-21T17:09:46.474Z,102214.84
2022-09-21T17:12:17.877Z,102220.22
2022-09-21T17:14:47.028Z,102223.81
2022-09-21T17:17:17.214Z,102226.47
2022-09-21T17:19:46.507Z,102229.28
2022-09-21T17:22:17.297Z,102225.81
2022-09-21T17:24:51.757Z,102231.25
2022-09-21T17:27:26.830Z,102226.97
2022-09-21T17:29:55.345Z,102241.28
2022-09-21T17:32:24.692Z,102232.56
2022-09-21T17:35:17.452Z,102241.56
2022-09-21T17:37:47.082Z,102248.72
2022-09-21T17:40:14.488Z,102244.47
2022-09-21T17:42:46.574Z,102233.06
2022-09-21T17:45:37.650Z,102237.56
2022-09-21T17:48:05.245Z,102241.16
2022-09-21T17:50:32.322Z,102238.56
2022-09-21T17:53:17.989Z,102233.31
2022-09-21T17:55:54.518Z,102242.25
2022-09-21T17:58:59.843Z,102246.78
2022-09-21T18:01:34.167Z,102243.38
2022-09-21T18:04:01.197Z,102247.88
2022-09-21T18:06:28.804Z,102245.25
2022-09-21T18:08:55.971Z,102249.78
2022-09-21T18:12:01.898Z,102250.75
2022-09-21T18:14:31.690Z,102257.03
2022-09-21T18:17:00.982Z,102250.06
2022-09-21T18:19:27.626Z,102264.31
2022-09-21T18:22:02.570Z,102260.81
2022-09-21T18:24:33.697Z,102259.09
2022-09-21T18:27:00.885Z,102264.44
2022-09-21T18:29:40.880Z,102253.03
2022-09-21T18:32:47.258Z,102259.28
2022-09-21T18:35:51.118Z,102264.63
2022-09-21T18:38:36.306Z,102268.16
2022-09-21T18:41:39.278Z,102272.63
2022-09-21T18:44:25.403Z,102268.31
2022-09-21T18:47:00.818Z,102266.63
2022-09-21T18:49:58.000Z,102260.53
2022-09-21T18:52:40.737Z,102268.50
2022-09-21T18:55:17.973Z,102272.97
2022-09-21T18:57:45.455Z,102265.97
2022-09-21T19:00:15.674Z,102263.38
2022-09-21T19:02:59.056Z,102274.03
2022-09-21T19:05:29.480Z,102272.34
2022-09-21T19:08:11.353Z,102269.69
2022-09-21T19:11:21.990Z,102267.97
2022-09-21T19:14:04.993Z,102269.75
2022-09-21T19:16:51.819Z,102264.47
2022-09-21T19:19:37.030Z,102270.69
2022-09-21T19:22:28.115Z,102267.19
2022-09-21T19:25:19.227Z,102263.69
2022-09-21T19:28:11.986Z,102269.91
2022-09-21T19:30:39.748Z,102268.19
2022-09-21T19:33:48.248Z,102270.88
2022-09-21T19:36:09.621Z,102271.78
2022-09-21T19:38:36.358Z,102272.66
2022-09-21T19:41:05.414Z,102270.94
2022-09-21T19:43:48.805Z,102280.69
2022-09-21T19:46:41.779Z,102271.88
2022-09-21T19:49:18.089Z,102270.13
2022-09-21T19:51:49.685Z,102271.03
2022-09-21T19:54:37.613Z,102272.84
2022-09-21T19:57:41.478Z,102279.91
2022-09-21T20:00:11.417Z,102279.03
2022-09-21T20:03:14.157Z,102284.38
2022-09-21T20:05:57.240Z,102282.59
2022-09-21T20:08:33.763Z,102280.00
2022-09-21T20:11:15.594Z,102277.41
2022-09-21T20:13:47.715Z,102275.69
2022-09-21T20:16:42.964Z,102280.13
2022-09-21T20:19:57.786Z,102285.44
2022-09-21T20:22:34.833Z,102274.88
2022-09-21T20:25:25.415Z,102276.72
2022-09-21T20:27:55.933Z,102285.59
2022-09-21T20:30:28.499Z,102283.84
2022-09-21T20:33:06.896Z,102274.09
2022-09-21T20:35:34.617Z,102274.06
2022-09-21T20:38:02.882Z,102274.97
2022-09-21T20:40:32.426Z,102271.41
2022-09-21T20:43:01.220Z,102269.66
2022-09-21T20:45:28.508Z,102277.59
2022-09-21T20:47:57.298Z,102270.53
2022-09-21T20:50:33.364Z,102275.00
2022-09-21T20:53:00.250Z,102275.00
2022-09-21T20:55:28.253Z,102273.22
2022-09-21T20:57:55.140Z,102275.88
2022-09-21T21:00:21.801Z,102268.84
2022-09-21T21:02:48.432Z,102282.97
2022-09-21T21:05:15.121Z,102283.03
2022-09-21T21:07:44.598Z,102277.78
2022-09-21T21:10:16.549Z,102279.56
2022-09-21T21:12:43.131Z,102276.06
2022-09-21T21:15:11.527Z,102281.34
2022-09-21T21:17:39.131Z,102282.22
2022-09-21T21:20:07.183Z,102270.75
2022-09-21T21:22:33.845Z,102272.50
2022-09-21T21:25:00.794Z,102268.06
2022-09-21T21:27:28.093Z,102261.91
2022-09-21T21:29:55.405Z,102266.31
2022-09-21T21:32:25.250Z,102266.31
2022-09-21T21:34:53.122Z,102263.66
2022-09-21T21:37:21.089Z,102263.69
2022-09-21T21:39:48.021Z,102261.91
2022-09-21T21:42:14.753Z,102262.81
2022-09-21T21:44:41.770Z,102262.81
2022-09-21T21:47:27.886Z,102259.31
2022-09-21T21:49:55.159Z,102258.44
2022-09-21T21:52:21.948Z,102261.06
2022-09-21T21:54:48.543Z,102261.97
2022-09-21T21:57:15.182Z,102264.63
2022-09-21T21:59:43.297Z,102258.47
2022-09-21T22:02:13.060Z,102254.97
2022-09-21T22:04:50.070Z,102264.63
2022-09-21T22:07:16.978Z,102257.63
2022-09-21T22:09:46.695Z,102259.38
2022-09-21T22:12:15.795Z,102258.50
2022-09-21T22:14:49.009Z,102259.38
2022-09-21T22:17:15.953Z,102245.28
2022-09-21T22:19:45.679Z,102255.00
2022-09-21T22:22:12.361Z,102257.63
2022-09-21T22:24:39.269Z,102255.88
2022-09-21T22:27:05.925Z,102264.69
2022-09-21T22:29:32.740Z,102260.28
2022-09-21T22:31:59.966Z,102260.28
2022-09-21T22:34:26.702Z,102262.06
2022-09-21T22:36:53.917Z,102266.50
2022-09-21T22:39:20.576Z,102264.75
2022-09-21T22:41:47.181Z,102272.66
2022-09-21T22:44:13.801Z,102271.78
2022-09-21T22:46:40.701Z,102276.19
2022-09-21T22:49:07.834Z,102275.34
2022-09-21T22:51:35.116Z,102267.41
2022-09-21T22:54:01.819Z,102275.34
2022-09-21T22:56:32.781Z,102272.72
2022-09-21T22:59:04.171Z,102270.97
2022-09-21T23:01:37.468Z,102274.50
2022-09-21T23:04:24.431Z,102275.38
2022-09-21T23:07:05.238Z,102273.59
2022-09-21T23:09:32.009Z,102273.59
2022-09-21T23:12:01.599Z,102271.84
2022-09-21T23:14:29.542Z,102271.88
2022-09-21T23:16:56.226Z,102271.88
2022-09-21T23:19:22.810Z,102273.63
2022-09-21T23:21:53.111Z,102265.72
2022-09-21T23:24:20.313Z,102262.19
2022-09-21T23:26:47.610Z,102252.47
2022-09-21T23:29:19.570Z,102256.91
2022-09-21T23:31:46.597Z,102255.16
2022-09-21T23:34:16.946Z,102257.78
2022-09-21T23:36:50.739Z,102254.28
2022-09-21T23:39:18.656Z,102256.91
2022-09-21T23:41:45.378Z,102247.25
2022-09-21T23:44:12.215Z,102256.03
2022-09-21T23:46:40.218Z,102246.34
2022-09-21T23:49:07.339Z,102250.75
2022-09-21T23:51:34.555Z,102252.50
2022-09-21T23:54:01.485Z,102245.47
2022-09-21T23:56:28.930Z,102242.81
2022-09-21T23:58:56.369Z,102244.59
